Latest Coastal Weather Observations for Sydney Airport

IDN60701

Issued at 6:51 pm EST Sunday 25 June 2017 (issued every 10 minutes, with the page automatically refreshed every 10 minutes)

About coastal observations | Map of coastal stations | Coastal observations for NSW | Marine services | Other Formats
Station Details ID: 066037 Name: SYDNEY AIRPORT AMO Lat: -33.95 Lon: 151.17 Height: 6.0 m
Data from the previous 72 hours. | See also: Recent months at Sydney Airport
Date/Time
EST
Temp
°C
Wind Pressure Rain since
9am
mm
Weather Cloud Vis
km
Sea
Height
m
Swell
Dir  Spd
kts
Gust
kts
hPa Trend Height
m
Period
s
Dir
25/06:30pm 14.8 WSW 11 15 1017.4 - 0.0 - - 10 - - - -
25/06:00pm 15.5 WSW 15 18 1016.9 R 0.0 Fine Mostly clear 40 - - - -
25/05:30pm 15.6 WSW 13 18 1016.7 - 0.0 - Mostly clear 10 - - - -
25/05:00pm 16.0 WSW 10 14 1016.2 - 0.0 - Mostly clear 10 - - - -
25/04:30pm 17.0 WSW 11 15 1015.8 - 0.0 - - 10 - - - -
25/04:00pm 17.8 WSW 15 20 1015.7 - 0.0 - - 10 - - - -
25/03:30pm 18.1 WSW 14 19 1015.4 - 0.0 - - 10 - - - -
25/03:00pm 17.9 WSW 15 20 1015.2 F 0.0 Fine Mostly clear 40 - - - -
25/02:30pm 18.9 WSW 17 22 1015.2 - 0.0 - - 10 - - - -
25/02:00pm 18.6 WNW 11 15 1015.5 - 0.0 - - 10 - - - -
25/01:30pm 18.1 WNW 11 14 1015.5 - 0.0 - - 10 - - - -
25/01:00pm 17.8 WNW 14 19 1015.8 - 0.0 - - 10 - - - -
25/12:30pm 17.6 WNW 13 18 1016.3 - 0.0 - - 10 - - - -
25/12:00pm 17.0 WNW 15 21 1016.8 F 0.0 Fine Mostly clear 40 - - - -
25/11:30am 16.7 WNW 11 17 1017.2 - 0.0 - Mostly clear 10 - - - -
25/11:00am 16.0 WNW 11 16 1017.6 - 0.0 - Mostly clear 10 - - - -
25/10:30am 15.7 NW 11 16 1018.2 - 0.0 - Mostly clear 10 - - - -
25/10:00am 14.0 NW 10 14 1018.5 - 0.0 - - 10 - - - -
25/09:30am 12.9 NW 9 12 1018.6 - 0.0 - - 10 - - - -
25/09:00am 11.9 NW 10 13 1018.4 F 0.0 Fine Mostly clear 30 - - - -
25/08:30am 10.8 WNW 10 14 1018.3 - 0.0 - Mostly clear 10 - - - -
25/08:00am 10.1 NW 7 9 1018.1 - 0.0 - Mostly clear 10 - - - -
25/07:30am 9.2 NW 9 12 1018.3 - 0.0 - Mostly clear 10 - - - -
25/07:00am 8.5 NNW 6 7 1018.3 - 0.0 - Mostly clear 10 - - - -
25/06:30am 7.6 N 9 10 1018.1 - 0.0 - - 10 - - - -
25/06:00am 7.8 NW 5 7 1017.9 R 0.0 Fine Mostly clear 25 - - - -
25/05:30am 7.3 WNW 8 10 1017.7 - 0.0 - - 10 - - - -
25/05:00am 7.4 NW 6 8 1017.6 - 0.0 - - 10 - - - -
25/04:30am 7.7 NW 6 8 1017.6 - 0.0 - - 10 - - - -
25/04:00am 8.0 WNW 6 8 1017.5 - 0.0 - - 10 - - - -
25/03:30am 8.4 NNW 5 6 1017.3 - 0.0 - - 10 - - - -
25/03:00am 8.4 NW 8 10 1017.5 R 0.0 Fine Mostly clear 30 - - - -
25/02:30am 9.1 NW 7 8 1017.4 - 0.0 - - 10 - - - -
25/02:00am 8.9 NW 5 6 1017.4 - 0.0 - - 10 - - - -
25/01:30am 9.6 NW 6 6 1017.4 - 0.0 - - 10 - - - -
25/01:00am 10.6 WNW 7 8 1017.3 - 0.0 - - 10 - - - -
25/12:30am 10.9 WNW 7 7 1017.4 - 0.0 - - 10 - - - -
25/12:00am 11.3 WNW 7 9 1017.7 R 0.0 Fine Mostly clear 40 - - - -
 
Date/Time
EST
Temp
°C
Wind Pressure Rain since
9am
mm
Weather Cloud Vis
km
Sea
Height
m
Swell
Dir  Spd
kts
Gust
kts
hPa Trend Height
m
Period
s
Dir
24/11:30pm 11.7 WSW 6 7 1017.7 - 0.0 - - 10 - - - -
24/11:00pm 12.0 WSW 6 7 1017.8 - 0.0 - - 10 - - - -
24/10:30pm 12.5 SW 7 13 1017.8 - 0.0 - - 10 - - - -
24/10:00pm 12.8 WSW 7 9 1017.9 - 0.0 - - 10 - - - -
24/09:30pm 13.6 SW 10 21 1017.8 - 0.0 - - 10 - - - -
24/09:00pm 13.9 SW 12 23 1017.6 R 0.0 Distant precip. Mostly clear 30 - - - -
24/08:30pm 14.1 SW 11 15 1017.4 - 0.0 - Mostly clear 10 - - - -
24/08:00pm 13.8 SW 10 13 1017.3 - 0.0 - - 10 - - - -
24/07:30pm 14.2 SW 10 12 1017.1 - 0.0 - - 10 - - - -
24/07:00pm 14.4 WSW 9 10 1016.8 - 0.0 - - 10 - - - -
24/06:30pm 14.8 SW 8 9 1016.4 - 0.0 - Mostly clear 10 - - - -
24/06:00pm 15.6 WSW 8 9 1016.3 R 0.0 Fine Mostly clear 30 - - - -
24/05:30pm 15.9 WSW 6 11 1015.9 - 0.0 - Mostly clear 10 - - - -
24/05:00pm 16.8 W 6 7 1015.7 - 0.0 - Mostly clear 10 - - - -
24/04:30pm 17.4 W 7 19 1015.5 - 0.0 - Mostly clear 10 - - - -
24/04:00pm 18.0 W 10 12 1015.4 - 0.0 - Mostly clear 10 - - - -
24/03:30pm 18.3 WSW 13 19 1015.3 - 0.0 - Mostly clear 10 - - - -
24/03:00pm 19.3 W 15 19 1015.2 R 0.0 Fine Mostly clear 40 - - - -
24/02:30pm 19.6 W 7 12 1015.0 - 0.0 - Mostly clear 10 - - - -
24/02:00pm 19.1 W 9 12 1015.0 - 0.0 - Mostly clear 10 - - - -
24/01:30pm 18.9 W 10 14 1015.1 - 0.0 - Mostly clear 10 - - - -
24/01:00pm 18.0 W 10 22 1015.5 - 0.0 - Mostly clear 10 - - - -
24/12:30pm 18.2 WNW 9 12 1015.7 - 0.0 - Mostly clear 10 - - - -
24/12:00pm 16.7 SW 3 6 1016.1 F 0.0 Fine Partly cloudy 30 - - - -
24/11:30am 16.5 WNW 6 9 1016.5 - 0.0 - Mostly clear 10 - - - -
24/11:00am 16.7 WNW 11 16 1016.8 - 0.0 - Mostly clear 10 - - - -
24/10:30am 15.0 NW 13 17 1017.1 - 0.0 - - 10 - - - -
24/10:00am 15.3 NW 12 16 1017.5 - 0.0 - - 10 - - - -
24/09:30am 13.8 WNW 13 16 1017.6 - 0.0 - - 10 - - - -
24/09:00am 12.9 WNW 12 15 1017.3 R 0.0 Fine Partly cloudy 30 - - - -
24/08:30am 12.2 WNW 6 7 1017.2 - 0.0 - - 10 - - - -
24/08:00am 10.9 WNW 11 15 1016.7 - 0.0 - - 10 - - - -
24/07:30am 10.1 WSW 9 13 1016.5 - 0.0 - - 10 - - - -
24/07:00am 11.9 W 10 15 1015.7 - 0.0 - - 10 - - - -
24/06:30am 12.0 W 9 17 1015.5 - 0.0 - - 10 - - - -
24/06:00am 11.5 WNW 15 19 1014.6 R 0.0 Fine Mostly cloudy 30 - - - -
24/05:30am 11.6 WNW 9 11 1014.5 - 0.0 - - 10 - - - -
24/05:00am 11.4 W 14 16 1014.2 - 0.0 - - 10 - - - -
24/04:30am 11.5 W 16 19 1013.9 - 0.0 - - 10 - - - -
24/04:00am 11.0 WNW 17 21 1013.9 - 0.0 - - 10 - - - -
24/03:53am 11.4 WNW 15 20 1013.9 - 0.0 - - 10 - - - -
24/03:30am 10.5 WNW 5 9 1014.4 - 0.0 - - 10 - - - -
24/03:00am 10.5 WNW 8 10 1014.1 R 0.0 Fine Partly cloudy 30 - - - -
24/02:30am 11.1 WNW 10 15 1014.2 - 0.0 - - 10 - - - -
24/02:00am 10.2 WNW 11 14 1014.0 - 0.0 - - 10 - - - -
24/01:30am 10.4 NW 9 11 1014.5 - 0.0 - - 10 - - - -
24/01:00am 11.6 NW 8 10 1014.4 - 0.0 - - 10 - - - -
24/12:30am 11.5 NW 9 11 1014.5 - 0.0 - - 10 - - - -
24/12:00am 11.8 NW 9 11 1014.5 F 0.0 Haze Partly cloudy 20 - - - -
 
Date/Time
EST
Temp
°C
Wind Pressure Rain since
9am
mm
Weather Cloud Vis
km
Sea
Height
m
Swell
Dir  Spd
kts
Gust
kts
hPa Trend Height
m
Period
s
Dir
23/11:30pm 12.5 WNW 10 12 1014.8 - 0.0 - - 10 - - - -
23/11:00pm 12.8 WNW 9 10 1015.1 - 0.0 - - 10 - - - -
23/10:30pm 13.1 WNW 8 11 1015.3 - 0.0 - - 10 - - - -
23/10:00pm 13.3 WNW 9 12 1014.8 - 0.0 - - 10 - - - -
23/09:30pm 13.6 WNW 7 9 1015.1 - 0.0 - - 10 - - - -
23/09:00pm 13.3 NW 6 9 1015.2 F 0.0 Fine Partly cloudy 30 - - - -
23/08:30pm 14.3 NW 4 5 1015.3 - 0.0 - - 10 - - - -
23/08:00pm 14.6 NW 7 10 1015.4 - 0.0 - - 10 - - - -
23/07:30pm 14.8 N 5 6 1015.0 - 0.0 - - 10 - - - -
23/07:00pm 15.2 NW 6 8 1015.0 - 0.0 - - 10 - - - -
23/06:30pm 16.2 NW 5 7 1014.8 - 0.0 - - 10 - - - -
23/06:00pm 15.5 W 5 7 1015.0 F 0.0 Fine Partly cloudy 30 - - - -
23/05:30pm 16.5 W 6 7 1014.9 - 0.0 - - 10 - - - -
23/05:00pm 17.1 W 6 9 1014.8 - 0.0 - - 10 - - - -
23/04:30pm 17.4 NW 7 10 1014.7 - 0.0 - - 10 - - - -
23/04:00pm 18.1 NW 6 8 1014.4 - 0.0 - - 10 - - - -
23/03:30pm 18.1 NW 8 10 1014.6 - 0.0 - - 10 - - - -
23/03:00pm 18.2 NW 8 10 1014.7 F 0.0 Fine Mostly cloudy 25 - - - -
23/02:30pm 18.4 NNW 9 11 1014.8 - 0.0 - - 10 - - - -
23/02:00pm 17.4 NW 5 7 1015.1 - 0.0 - - 10 - - - -
23/01:30pm 16.8 NW 6 7 1015.8 - 0.0 - - 10 - - - -
23/01:00pm 16.2 NW 9 11 1016.4 - 0.0 - - 10 - - - -
23/12:30pm 16.4 NW 7 9 1017.1 - 0.0 - - 10 - - - -
23/12:00pm 15.4 NW 8 10 1017.7 F 0.0 Haze Mostly cloudy 20 - - - -
23/11:30am 15.4 NW 8 10 1018.7 - 0.0 - - 10 - - - -
23/11:00am 14.9 NNW 10 15 1019.2 - 0.0 - - 10 - - - -
23/10:30am 14.2 NNW 8 10 1020.0 - 0.0 - Mostly clear 10 - - - -
23/10:00am 13.2 NW 9 12 1020.7 - 0.0 - Mostly clear 10 - - - -
23/09:30am 12.2 NW 9 10 1021.0 - 0.0 - Mostly clear 10 - - - -
23/09:00am 10.9 NW 7 8 1020.8 F 0.0 Haze Mostly cloudy 18 - - - -
23/08:30am 11.3 NW 9 13 1020.8 - 0.0 - Mostly clear 10 - - - -
23/08:00am 10.6 NW 8 11 1020.8 - 0.0 - Mostly clear 10 - - - -
23/07:30am 9.7 NW 6 8 1021.0 - 0.0 - Mostly clear 10 - - - -
23/07:00am 9.8 WNW 7 10 1020.8 - 0.0 - Mostly clear 10 - - - -
23/06:30am 10.5 NW 8 11 1020.5 - 0.0 - Mostly clear 10 - - - -
23/06:00am 10.0 NW 10 12 1020.6 F 0.0 Haze Partly cloudy 18 - - - -
23/05:30am 9.5 NW 9 11 1020.7 - 0.0 - - 10 - - - -
23/05:00am 9.1 NW 11 14 1020.7 - 0.0 - - 10 - - - -
23/04:30am 9.2 NNW 10 14 1020.9 - 0.0 - - 10 - - - -
23/04:00am 9.4 NNW 9 - 1021.0 - - - - - - - - -
23/03:00am 9.5 NNW 7 9 1021.3 F 0.0 Haze Mostly clear 14 - - - -
23/02:30am 10.5 NNW 7 8 1021.6 - 0.0 - - 10 - - - -
23/02:00am 10.5 NW 7 8 1021.6 - 0.0 - - 10 - - - -
23/01:30am 11.1 NW 6 7 1022.0 - 0.0 - - 10 - - - -
23/01:00am 11.3 NW 7 8 1022.2 - 0.0 - - 10 - - - -
23/12:30am 11.6 NNW 7 7 1022.3 - 0.0 - - 10 - - - -
23/12:00am 12.6 N 5 7 1022.5 F 0.0 Haze Mostly clear 16 - - - -
 
Date/Time
EST
Temp
°C
Wind Pressure Rain since
9am
mm
Weather Cloud Vis
km
Sea
Height
m
Swell
Dir  Spd
kts
Gust
kts
hPa Trend Height
m
Period
s
Dir
22/11:30pm 12.7 NW 7 8 1023.3 - 0.0 - - 10 - - - -
22/11:00pm 13.0 NW 7 8 1023.6 - 0.0 - - 10 - - - -
22/10:30pm 13.6 NNW 6 7 1023.8 - 0.0 - - 10 - - - -
22/10:00pm 13.9 N 4 4 1023.7 - 0.0 - - 10 - - - -
22/09:30pm 13.7 W 4 7 1024.0 - 0.0 - - 10 - - - -
22/09:00pm 13.7 WSW 4 5 1024.1 F 0.0 Fine Partly cloudy 25 - - - -
22/08:30pm 14.2 CALM 0 0 1024.1 - 0.0 - - 10 - - - -
22/08:00pm 14.9 CALM 0 0 1024.3 - 0.0 - - 10 - - - -
22/07:30pm 15.3 CALM 0 0 1024.2 - 0.0 - - 10 - - - -
22/07:00pm 15.3 CALM 0 0 1024.4 - 0.0 - - 10 - - - -

Other Formats:

Comma delimited format used in spreadsheet applications
http://www.bom.gov.au/fwo/IDN60701/IDN60701.94767.axf

JavaScript Object Notation format (JSON) in row-major order
http://www.bom.gov.au/fwo/IDN60701/IDN60701.94767.json